Time;durP1;ratioP1;P1;durP2;ratioP2;P2;SDS_P1;SDS_P2;PMS_P1;PMS_P2;Temp;Humidity;BMP_temperature;BMP_pressure;BME280_temperature;BME280_humidity;BME280_pressure;Samples;Min_cycle;Max_cycle;Signal;HPM_P1;HPM_P2
2023/03/15 00:02:04;;;;;;;0.75;0.75;;;0.40;99.90;;;;;;6234613;23;19997;-89
2023/03/15 00:04:31;;;;;;;0.75;0.63;;;0.40;99.90;;;;;;6213375;23;20004;-89
2023/03/15 00:06:58;;;;;;;2.40;0.70;;;0.30;99.90;;;;;;6214821;23;20020;-88
2023/03/15 00:09:23;;;;;;;1.90;0.90;;;0.30;99.90;;;;;;6218199;23;20013;-87
2023/03/15 00:11:50;;;;;;;1.27;0.75;;;0.30;99.90;;;;;;6208214;23;20104;-89
2023/03/15 00:14:17;;;;;;;2.60;0.98;;;0.30;99.90;;;;;;6225866;23;20027;-89
2023/03/15 00:16:43;;;;;;;2.58;0.77;;;0.30;99.90;;;;;;6201489;23;20004;-89
2023/03/15 00:19:10;;;;;;;1.20;1.00;;;0.20;99.90;;;;;;6198458;23;20020;-89
2023/03/15 00:21:35;;;;;;;1.88;1.45;;;0.20;99.90;;;;;;6196742;23;19997;-89
2023/03/15 00:24:02;;;;;;;3.13;1.73;;;0.10;99.90;;;;;;6194731;23;20069;-89
2023/03/15 00:26:28;;;;;;;6.53;2.90;;;0.10;99.90;;;;;;6194607;23;20008;-90
2023/03/15 00:28:54;;;;;;;8.27;2.35;;;0.10;99.90;;;;;;6222131;23;20004;-89
2023/03/15 00:31:22;;;;;;;5.10;2.05;;;0.10;99.90;;;;;;6194095;23;20428;-89
2023/03/15 00:33:48;;;;;;;5.72;2.75;;;0.10;99.90;;;;;;6221030;23;20057;-89
2023/03/15 00:36:15;;;;;;;5.47;3.10;;;0.00;99.90;;;;;;6195048;23;20001;-90
2023/03/15 00:38:43;;;;;;;2.65;1.70;;;0.00;99.90;;;;;;6194039;23;20021;-89
2023/03/15 00:41:14;;;;;;;4.13;2.08;;;0.00;99.90;;;;;;6194508;23;20008;-89
2023/03/15 00:43:40;;;;;;;3.78;2.17;;;-0.10;99.90;;;;;;6195297;23;20012;-89
2023/03/15 00:46:06;;;;;;;3.00;1.67;;;-0.10;99.90;;;;;;6219729;23;20001;-89
2023/03/15 00:48:34;;;;;;;3.67;1.75;;;-0.10;99.90;;;;;;6192072;23;20039;-89
2023/03/15 00:51:13;;;;;;;6.30;1.33;;;-0.10;99.90;;;;;;6192048;23;20032;-89
2023/03/15 00:53:41;;;;;;;3.15;1.38;;;-0.10;99.90;;;;;;6219504;23;20004;-88
2023/03/15 00:56:12;;;;;;;2.47;1.63;;;-0.10;99.90;;;;;;6191642;23;20012;-88
2023/03/15 00:58:39;;;;;;;2.10;1.20;;;-0.10;99.90;;;;;;6192069;23;20016;-89
2023/03/15 01:01:25;;;;;;;6.85;1.65;;;-0.10;99.90;;;;;;6219003;23;20005;-88
2023/03/15 01:03:51;;;;;;;1.73;1.40;;;-0.10;99.90;;;;;;6219281;23;20074;-89
2023/03/15 01:06:19;;;;;;;1.90;1.33;;;-0.20;99.90;;;;;;6192386;23;20004;-89
2023/03/15 01:08:46;;;;;;;2.15;1.40;;;-0.20;99.90;;;;;;6218584;23;20000;-90
2023/03/15 01:11:14;;;;;;;2.85;1.70;;;-0.20;99.90;;;;;;6191374;23;20431;-89
2023/03/15 01:13:40;;;;;;;2.08;1.30;;;-0.20;99.90;;;;;;6191288;23;20005;-90
2023/03/15 01:16:08;;;;;;;4.00;1.58;;;-0.30;99.90;;;;;;6217379;23;20012;-89
2023/03/15 01:18:34;;;;;;;2.08;1.60;;;-0.30;99.90;;;;;;6218322;23;20016;-89
2023/03/15 01:21:00;;;;;;;1.35;1.20;;;-0.20;99.90;;;;;;6191764;23;20079;-89
2023/03/15 01:23:25;;;;;;;5.63;2.60;;;-0.20;99.90;;;;;;6192287;23;20082;-89
2023/03/15 01:25:51;;;;;;;2.40;1.67;;;-0.20;99.90;;;;;;6192387;23;20024;-87
2023/03/15 01:28:17;;;;;;;2.33;2.10;;;-0.20;99.90;;;;;;6192003;23;20004;-89
2023/03/15 01:30:50;;;;;;;2.30;1.77;;;-0.20;99.90;;;;;;6191853;23;20004;-89
2023/03/15 01:33:16;;;;;;;5.63;2.30;;;-0.20;99.90;;;;;;6219052;23;20052;-88
2023/03/15 01:35:41;;;;;;;3.78;2.30;;;-0.20;99.90;;;;;;6193505;23;20012;-89
2023/03/15 01:38:07;;;;;;;3.50;2.30;;;-0.30;99.90;;;;;;6190547;23;20332;-89
2023/03/15 01:40:33;;;;;;;3.95;2.50;;;-0.30;99.90;;;;;;6190720;23;20008;-88
2023/03/15 01:43:04;;;;;;;4.47;2.83;;;-0.40;99.90;;;;;;6217565;23;20055;-89
2023/03/15 01:45:52;;;;;;;6.88;3.38;;;-0.40;99.90;;;;;;6217300;23;20005;-90
2023/03/15 01:48:18;;;;;;;7.82;3.42;;;-0.60;99.90;;;;;;6190618;23;20009;-89
2023/03/15 01:50:44;;;;;;;5.82;3.63;;;-0.60;99.90;;;;;;6190633;23;20000;-89
2023/03/15 01:53:11;;;;;;;6.55;3.65;;;-0.60;99.90;;;;;;6217212;23;20043;-89
2023/03/15 01:55:37;;;;;;;10.43;4.43;;;-0.60;99.90;;;;;;6217322;23;20008;-88
2023/03/15 01:58:05;;;;;;;6.28;4.07;;;-0.70;99.90;;;;;;6222846;23;20076;-89
2023/03/15 02:00:31;;;;;;;9.38;4.07;;;-0.70;99.90;;;;;;6198370;23;20015;-89
2023/03/15 02:03:25;;;;;;;6.35;3.45;;;-0.70;99.90;;;;;;6198771;23;20001;-88
2023/03/15 02:05:56;;;;;;;7.00;4.32;;;-0.70;99.90;;;;;;6222459;23;20015;-88
2023/03/15 02:08:24;;;;;;;;;;;-0.70;99.90;;;;;;6198689;23;20413;-90
2023/03/15 02:10:53;;;;;;;8.90;3.47;;;-0.80;99.90;;;;;;6201027;23;19974;-89
2023/03/15 02:13:23;;;;;;;6.03;3.50;;;-0.80;99.90;;;;;;6194881;23;20036;-89
2023/03/15 02:15:52;;;;;;;7.30;3.90;;;-0.80;99.90;;;;;;6194847;23;20004;-89
2023/03/15 02:18:19;;;;;;;7.85;4.30;;;-0.80;99.90;;;;;;6195000;23;20017;-90
2023/03/15 02:21:00;;;;;;;6.15;3.65;;;-0.80;99.90;;;;;;6194416;23;20059;-88
2023/03/15 02:23:27;;;;;;;5.80;3.72;;;-0.80;99.90;;;;;;6193435;23;20336;-86
2023/03/15 02:26:24;;;;;;;5.72;3.70;;;-0.90;99.90;;;;;;6195910;23;20042;-87
2023/03/15 02:28:52;;;;;;;5.32;3.28;;;-0.90;99.90;;;;;;6192953;23;20004;-88
2023/03/15 02:31:19;;;;;;;5.90;3.65;;;-0.90;99.90;;;;;;6193657;23;20001;-89
2023/03/15 02:33:54;;;;;;;6.15;2.95;;;-0.90;99.90;;;;;;6194764;23;20098;-88
2023/03/15 02:36:33;;;;;;;5.13;3.15;;;-0.90;99.90;;;;;;6193229;23;20001;-88
2023/03/15 02:38:59;;;;;;;6.53;3.92;;;-0.90;99.90;;;;;;6221243;23;20013;-88
2023/03/15 02:41:35;;;;;;;6.85;3.40;;;-0.90;99.90;;;;;;6196577;23;20034;-88
2023/03/15 02:44:07;;;;;;;6.60;3.88;;;-1.00;99.90;;;;;;6194098;23;20036;-89
2023/03/15 02:46:34;;;;;;;6.03;4.13;;;-1.00;99.90;;;;;;6192876;23;19996;-90
2023/03/15 02:49:01;;;;;;;7.45;3.67;;;-1.00;99.90;;;;;;6168264;23;20013;-88
2023/03/15 02:51:28;;;;;;;5.68;3.28;;;-1.10;99.90;;;;;;6219158;23;20043;-88
2023/03/15 02:53:54;;;;;;;8.32;3.58;;;-1.10;99.90;;;;;;6192861;23;20005;-88
2023/03/15 02:56:20;;;;;;;6.45;3.38;;;-1.10;99.90;;;;;;6218706;23;20016;-88
2023/03/15 02:58:46;;;;;;;4.97;3.28;;;-1.10;99.90;;;;;;6167754;23;20025;-89
2023/03/15 03:01:13;;;;;;;4.40;2.85;;;-1.10;99.90;;;;;;6192670;23;20001;-88
2023/03/15 03:03:43;;;;;;;5.68;3.35;;;-1.20;99.90;;;;;;6218604;23;20316;-89
2023/03/15 03:06:11;;;;;;;5.13;3.22;;;-1.30;99.90;;;;;;6218891;23;20043;-88
2023/03/15 03:08:37;;;;;;;7.03;3.40;;;-1.30;99.90;;;;;;6218566;23;20416;-90
2023/03/15 03:11:02;;;;;;;4.80;3.00;;;-1.30;99.90;;;;;;6194444;23;20065;-89
2023/03/15 03:13:28;;;;;;;8.05;4.15;;;-1.30;99.90;;;;;;6192734;23;20016;-90
2023/03/15 03:15:57;;;;;;;7.53;4.00;;;-1.30;99.90;;;;;;6192890;23;19996;-90
2023/03/15 03:18:34;;;;;;;8.60;4.00;;;-1.30;99.90;;;;;;6218620;23;20008;-90
2023/03/15 03:21:04;;;;;;;8.85;4.28;;;-1.30;99.90;;;;;;6218696;23;20000;-90
2023/03/15 03:23:32;;;;;;;7.93;3.35;;;-1.40;99.90;;;;;;6218761;23;20375;-89
2023/03/15 03:25:59;;;;;;;6.57;3.15;;;-1.40;99.90;;;;;;6192552;23;20008;-89
2023/03/15 03:28:26;;;;;;;7.60;3.22;;;-1.40;99.90;;;;;;6192461;23;20499;-89
2023/03/15 03:30:53;;;;;;;5.82;3.47;;;-1.40;99.90;;;;;;6192857;23;20012;-90
2023/03/15 03:33:20;;;;;;;7.30;3.67;;;-1.40;99.90;;;;;;6192017;23;20011;-90
2023/03/15 03:35:46;;;;;;;5.07;3.20;;;-1.40;99.90;;;;;;6192301;23;20000;-89
2023/03/15 03:38:12;;;;;;;6.22;3.17;;;-1.40;99.90;;;;;;6218532;23;20007;-90
2023/03/15 03:40:39;;;;;;;5.90;3.55;;;-1.40;99.90;;;;;;6219165;23;20004;-90
2023/03/15 03:43:06;;;;;;;7.40;4.00;;;-1.40;99.90;;;;;;6192622;23;20004;-90
2023/03/15 03:45:32;;;;;;;7.55;4.28;;;-1.40;99.90;;;;;;6192368;23;20109;-89
2023/03/15 03:47:57;;;;;;;11.55;4.55;;;-1.50;99.90;;;;;;6192504;23;20009;-90
2023/03/15 03:50:23;;;;;;;10.48;4.53;;;-1.50;99.90;;;;;;6192309;23;20020;-89
2023/03/15 03:52:49;;;;;;;8.60;4.95;;;-1.50;99.90;;;;;;6192015;23;20011;-90
2023/03/15 03:55:15;;;;;;;5.68;3.45;;;-1.40;99.90;;;;;;6191915;23;20035;-89
2023/03/15 03:57:41;;;;;;;7.93;3.92;;;-1.50;99.90;;;;;;6218798;23;20070;-90
2023/03/15 04:00:13;;;;;;;8.15;4.13;;;-1.50;99.90;;;;;;6197066;23;20071;-90
2023/03/15 04:02:41;;;;;;;7.55;3.75;;;-1.40;99.90;;;;;;6192287;23;20013;-90
2023/03/15 04:05:08;;;;;;;7.55;3.95;;;-1.40;99.90;;;;;;6193059;23;20009;-89
2023/03/15 04:07:33;;;;;;;6.93;3.67;;;-1.40;99.90;;;;;;6218361;23;20080;-89
2023/03/15 04:10:01;;;;;;;7.28;3.80;;;-1.30;99.90;;;;;;6217816;23;20447;-89
2023/03/15 04:12:27;;;;;;;8.63;3.70;;;-1.30;99.90;;;;;;6224047;23;19997;-88
2023/03/15 04:14:52;;;;;;;10.00;3.50;;;-1.30;99.90;;;;;;6225775;23;20079;-90
2023/03/15 04:17:18;;;;;;;6.65;3.53;;;-1.30;99.90;;;;;;6217961;23;20032;-88
2023/03/15 04:19:47;;;;;;;8.15;4.03;;;-1.30;99.90;;;;;;6217525;23;20012;-90
2023/03/15 04:22:14;;;;;;;9.13;4.28;;;-1.30;99.90;;;;;;6190750;23;20000;-90
2023/03/15 04:24:40;;;;;;;9.02;4.50;;;-1.30;99.90;;;;;;6191465;23;20012;-88
2023/03/15 04:27:06;;;;;;;5.97;3.35;;;-1.30;99.90;;;;;;6217517;23;20023;-90
2023/03/15 04:29:32;;;;;;;10.13;4.20;;;-1.20;99.90;;;;;;6216964;23;20000;-90
2023/03/15 04:32:00;;;;;;;9.80;3.90;;;-1.30;99.90;;;;;;6217280;23;20005;-90
2023/03/15 04:34:30;;;;;;;8.27;3.58;;;-1.20;99.90;;;;;;6191360;23;20005;-89
2023/03/15 04:36:56;;;;;;;10.20;4.67;;;-1.20;99.90;;;;;;6191401;23;20008;-90
2023/03/15 04:39:22;;;;;;;12.95;5.47;;;-1.20;99.90;;;;;;6191377;23;20271;-89
2023/03/15 04:41:49;;;;;;;17.02;6.43;;;-1.20;99.90;;;;;;6191175;23;20001;-90
2023/03/15 04:44:15;;;;;;;13.82;6.25;;;-1.30;99.90;;;;;;6191179;23;20005;-88
2023/03/15 04:46:44;;;;;;;20.10;7.70;;;-1.30;99.90;;;;;;6191414;23;20076;-88
2023/03/15 04:49:10;;;;;;;17.27;7.97;;;-1.30;99.90;;;;;;6217752;23;20067;-90
2023/03/15 04:51:36;;;;;;;19.50;7.68;;;-1.30;99.90;;;;;;6190776;23;20061;-90
2023/03/15 04:54:02;;;;;;;13.80;5.78;;;-1.20;99.90;;;;;;6190850;23;20096;-89
2023/03/15 04:56:29;;;;;;;33.90;8.00;;;-1.30;99.90;;;;;;6191252;23;20020;-90
2023/03/15 04:58:54;;;;;;;27.45;7.72;;;-1.30;99.90;;;;;;6191536;23;20016;-90
2023/03/15 05:01:26;;;;;;;18.27;5.95;;;-1.30;99.90;;;;;;6190999;23;20104;-89
2023/03/15 05:03:52;;;;;;;23.38;6.97;;;-1.30;99.90;;;;;;6217922;23;20008;-90
2023/03/15 05:06:18;;;;;;;19.38;6.65;;;-1.40;99.90;;;;;;6191056;23;20480;-89
2023/03/15 05:08:44;;;;;;;27.50;6.85;;;-1.30;99.90;;;;;;6217606;23;20083;-90
2023/03/15 05:11:10;;;;;;;36.72;7.15;;;-1.30;99.90;;;;;;6217299;23;20001;-90
2023/03/15 05:13:35;;;;;;;19.88;7.45;;;-1.30;99.90;;;;;;6190780;23;20054;-90
2023/03/15 05:16:01;;;;;;;119.00;10.18;;;-1.30;99.90;;;;;;6191117;23;20451;-89
2023/03/15 05:18:27;;;;;;;19.63;7.57;;;-1.30;99.90;;;;;;6191958;23;20018;-91
2023/03/15 05:20:54;;;;;;;22.60;7.55;;;-1.20;99.90;;;;;;6191492;23;20432;-88
2023/03/15 05:23:23;;;;;;;29.30;6.82;;;-1.20;99.90;;;;;;6217639;23;20004;-89
2023/03/15 05:25:54;;;;;;;19.40;7.35;;;-1.30;99.90;;;;;;6218601;23;20066;-90
2023/03/15 05:28:23;;;;;;;18.58;7.57;;;-1.30;99.90;;;;;;6218873;23;20478;-91
2023/03/15 05:30:51;;;;;;;62.58;7.90;;;-1.30;99.90;;;;;;6191385;23;20005;-91
2023/03/15 05:33:17;;;;;;;139.25;9.80;;;-1.30;99.90;;;;;;6190622;23;20005;-90
2023/03/15 05:35:43;;;;;;;51.22;8.77;;;-1.30;99.90;;;;;;6217854;23;20008;-90
2023/03/15 05:38:13;;;;;;;94.47;8.30;;;-1.30;99.90;;;;;;6218093;23;20009;-90
2023/03/15 05:40:40;;;;;;;70.30;8.77;;;-1.30;99.90;;;;;;6204744;23;20031;-89
2023/03/15 05:43:06;;;;;;;99.35;11.27;;;-1.30;99.90;;;;;;6220029;23;19996;-90
2023/03/15 05:45:31;;;;;;;84.22;9.15;;;-1.30;99.90;;;;;;6190528;23;20005;-91
2023/03/15 05:47:57;;;;;;;195.68;12.05;;;-1.30;99.90;;;;;;6191027;23;20313;-90
2023/03/15 05:50:23;;;;;;;168.48;11.13;;;-1.30;99.90;;;;;;6191005;23;20005;-89
2023/03/15 05:52:50;;;;;;;54.63;8.85;;;-1.30;99.90;;;;;;6217608;23;20009;-89
2023/03/15 05:55:16;;;;;;;50.70;8.50;;;-1.40;99.90;;;;;;6217341;23;20001;-89
2023/03/15 05:57:42;;;;;;;35.67;8.63;;;-1.30;99.90;;;;;;6191440;23;20008;-89
2023/03/15 06:00:09;;;;;;;160.18;12.25;;;-1.30;99.90;;;;;;6225814;23;20059;-89
2023/03/15 06:02:34;;;;;;;326.45;16.08;;;-1.30;99.90;;;;;;6225347;23;20024;-89
2023/03/15 06:05:00;;;;;;;174.50;12.32;;;-1.30;99.90;;;;;;6192237;23;20004;-89
2023/03/15 06:07:26;;;;;;;108.10;10.50;;;-1.30;99.90;;;;;;6218584;23;20001;-89
2023/03/15 06:09:52;;;;;;;123.97;10.35;;;-1.40;99.90;;;;;;6217469;23;20320;-88
2023/03/15 06:12:18;;;;;;;193.50;11.75;;;-1.40;99.90;;;;;;6191669;23;20400;-89
2023/03/15 06:14:44;;;;;;;204.07;12.35;;;-1.40;99.90;;;;;;6218246;23;20072;-90
2023/03/15 06:17:10;;;;;;;221.38;13.82;;;-1.50;99.90;;;;;;6191321;23;20005;-90
2023/03/15 06:19:35;;;;;;;256.23;16.52;;;-1.50;99.90;;;;;;6191266;23;20318;-90
2023/03/15 06:22:02;;;;;;;244.27;16.77;;;-1.50;99.90;;;;;;6191127;23;20432;-89
2023/03/15 06:24:28;;;;;;;184.93;11.20;;;-1.60;99.90;;;;;;6217948;23;20051;-90
2023/03/15 06:26:55;;;;;;;230.52;13.93;;;-1.60;99.90;;;;;;6218179;23;20000;-90
2023/03/15 06:29:20;;;;;;;259.30;17.55;;;-1.60;99.90;;;;;;6191263;23;20088;-91
2023/03/15 06:31:48;;;;;;;73.60;8.10;;;-1.60;99.90;;;;;;6217545;23;20000;-89
2023/03/15 06:34:14;;;;;;;89.18;7.68;;;-1.60;99.90;;;;;;6191016;23;20079;-89
2023/03/15 06:36:41;;;;;;;126.38;10.45;;;-1.50;99.90;;;;;;6190825;23;20012;-90
2023/03/15 06:39:07;;;;;;;133.55;9.18;;;-1.50;99.90;;;;;;6190257;23;20036;-90
2023/03/15 06:41:33;;;;;;;140.52;9.93;;;-1.50;99.90;;;;;;6190793;23;20008;-91
2023/03/15 06:43:59;;;;;;;111.53;8.82;;;-1.50;99.90;;;;;;6217307;23;20003;-91
2023/03/15 06:46:24;;;;;;;138.82;10.77;;;-1.50;99.90;;;;;;6217689;23;19997;-92
2023/03/15 06:48:50;;;;;;;66.25;8.88;;;-1.50;99.90;;;;;;6218189;23;20007;-92
2023/03/15 06:51:16;;;;;;;118.35;10.68;;;-1.60;99.90;;;;;;6192475;23;20011;-92
2023/03/15 06:53:42;;;;;;;67.70;8.13;;;-1.60;99.90;;;;;;6192193;23;20340;-91
2023/03/15 06:56:08;;;;;;;101.55;8.65;;;-1.50;99.90;;;;;;6218328;23;20091;-92
2023/03/15 06:58:34;;;;;;;172.40;10.10;;;-1.50;99.90;;;;;;6191676;23;20001;-92
2023/03/15 07:00:59;;;;;;;99.80;9.38;;;-1.50;99.90;;;;;;6192514;23;20005;-91
2023/03/15 07:03:25;;;;;;;65.13;9.43;;;-1.50;99.90;;;;;;6219174;23;20008;-91
2023/03/15 07:05:52;;;;;;;187.95;11.32;;;-1.50;99.90;;;;;;6222072;23;20006;-91
2023/03/15 07:08:19;;;;;;;44.40;7.30;;;-1.50;99.90;;;;;;6224693;23;20005;-91
2023/03/15 07:10:49;;;;;;;68.03;8.73;;;-1.40;99.90;;;;;;6219850;23;20020;-91
2023/03/15 07:13:15;;;;;;;71.93;7.95;;;-1.40;99.90;;;;;;6218731;23;20350;-91
2023/03/15 07:15:40;;;;;;;53.42;8.40;;;-1.40;99.90;;;;;;6192581;23;20009;-91
2023/03/15 07:18:07;;;;;;;58.15;8.25;;;-1.40;99.90;;;;;;6193039;23;20036;-91
2023/03/15 07:20:32;;;;;;;38.97;7.65;;;-1.30;99.90;;;;;;6218909;23;20005;-91
2023/03/15 07:22:58;;;;;;;46.92;7.22;;;-1.30;99.90;;;;;;6218686;23;20071;-90
2023/03/15 07:25:24;;;;;;;37.50;7.50;;;-1.20;99.90;;;;;;6218476;23;20001;-91
2023/03/15 07:27:51;;;;;;;68.75;8.52;;;-1.20;99.90;;;;;;6192037;23;20008;-91
2023/03/15 07:30:19;;;;;;;35.35;6.50;;;-1.20;99.90;;;;;;6191960;23;20009;-91
2023/03/15 07:32:45;;;;;;;38.55;7.47;;;-1.20;99.90;;;;;;6219208;23;20024;-91
2023/03/15 07:35:12;;;;;;;58.63;8.98;;;-1.20;99.90;;;;;;6192767;23;20035;-92
2023/03/15 07:37:37;;;;;;;41.67;7.95;;;-1.10;99.90;;;;;;6219942;23;20037;-92
2023/03/15 07:40:08;;;;;;;23.55;6.95;;;-1.10;99.90;;;;;;6194125;23;20008;-92
2023/03/15 07:42:37;;;;;;;;;;;-1.00;99.90;;;;;;6192892;23;20016;-93
2023/03/15 07:45:05;;;;;;;31.05;7.03;;;-1.00;99.90;;;;;;6218343;23;19950;-89
2023/03/15 07:47:31;;;;;;;64.88;9.40;;;-1.00;99.90;;;;;;6218079;23;20001;-92
2023/03/15 07:49:57;;;;;;;72.22;8.77;;;-1.00;99.90;;;;;;6191703;23;20008;-93
2023/03/15 07:52:23;;;;;;;63.72;8.90;;;-1.00;99.90;;;;;;6191865;23;20041;-92
2023/03/15 07:54:49;;;;;;;62.42;9.07;;;-1.00;99.90;;;;;;6192450;23;20009;-89
2023/03/15 07:57:15;;;;;;;37.65;9.25;;;-1.00;99.90;;;;;;6191181;23;20463;-89
2023/03/15 07:59:40;;;;;;;41.45;8.20;;;-1.00;99.90;;;;;;6218021;23;20039;-90
2023/03/15 08:02:08;;;;;;;42.08;8.98;;;-0.90;99.90;;;;;;6191809;23;20000;-91
2023/03/15 08:04:34;;;;;;;38.80;10.48;;;-0.90;99.90;;;;;;6191808;23;20442;-90
2023/03/15 08:07:00;;;;;;;51.35;12.00;;;-0.90;99.90;;;;;;6217590;23;20058;-90
2023/03/15 08:09:25;;;;;;;40.63;8.43;;;-0.80;99.90;;;;;;6190839;23;20309;-90
2023/03/15 08:11:51;;;;;;;70.22;9.82;;;-0.80;99.90;;;;;;6190788;23;20011;-88
2023/03/15 08:14:17;;;;;;;35.17;8.05;;;-0.80;99.90;;;;;;6217385;23;20007;-89
2023/03/15 08:16:42;;;;;;;39.47;8.27;;;-0.80;99.90;;;;;;6217401;23;20068;-90
2023/03/15 08:19:09;;;;;;;20.48;7.25;;;-0.80;99.90;;;;;;6190915;23;20016;-89
2023/03/15 08:21:34;;;;;;;32.03;7.72;;;-0.80;99.90;;;;;;6217565;23;20016;-90
2023/03/15 08:24:00;;;;;;;34.13;7.97;;;-0.80;99.90;;;;;;6191212;23;20102;-90
2023/03/15 08:26:26;;;;;;;27.55;7.85;;;-0.70;99.90;;;;;;6217708;23;20004;-91
2023/03/15 08:28:52;;;;;;;46.13;9.38;;;-0.50;99.90;;;;;;6217878;23;20000;-92
2023/03/15 08:31:17;;;;;;;41.15;8.35;;;-0.40;99.90;;;;;;6191779;23;20001;-90
2023/03/15 08:33:43;;;;;;;45.42;8.55;;;-0.30;99.90;;;;;;6197355;23;20001;-91
2023/03/15 08:36:09;;;;;;;25.02;7.95;;;-0.20;99.90;;;;;;6219986;23;20001;-92
2023/03/15 08:38:35;;;;;;;27.70;8.27;;;-0.20;99.90;;;;;;6191867;23;20535;-93
2023/03/15 08:41:00;;;;;;;35.10;7.57;;;-0.10;99.90;;;;;;6217634;23;20375;-93
2023/03/15 08:43:26;;;;;;;30.02;8.55;;;0.00;99.90;;;;;;6191671;23;20009;-92
2023/03/15 08:45:52;;;;;;;26.63;7.95;;;0.00;99.90;;;;;;6217728;23;19997;-93
2023/03/15 08:48:18;;;;;;;29.50;8.25;;;0.10;99.90;;;;;;6190603;23;20067;-93
2023/03/15 08:50:44;;;;;;;27.73;8.07;;;0.20;99.90;;;;;;6191462;23;20031;-93
2023/03/15 08:53:10;;;;;;;21.33;7.72;;;0.20;99.90;;;;;;6191193;23;20027;-91
2023/03/15 08:55:36;;;;;;;22.15;7.32;;;0.20;99.90;;;;;;6217393;23;20004;-91
2023/03/15 08:58:03;;;;;;;22.77;7.60;;;0.30;99.90;;;;;;6217501;23;20009;-92
2023/03/15 09:00:29;;;;;;;23.55;7.47;;;0.40;99.90;;;;;;6191368;23;20009;-92
2023/03/15 09:02:55;;;;;;;22.67;7.63;;;0.50;99.90;;;;;;6194687;23;20059;-91
2023/03/15 09:05:22;;;;;;;22.00;8.18;;;0.50;99.90;;;;;;6217393;23;19996;-89
2023/03/15 09:07:51;;;;;;;23.55;7.55;;;0.60;99.90;;;;;;6190787;23;20005;-90
2023/03/15 09:10:18;;;;;;;22.73;8.25;;;0.70;99.90;;;;;;6217919;23;19997;-90
2023/03/15 09:12:46;;;;;;;23.08;8.13;;;0.80;99.90;;;;;;6190533;23;20032;-89
2023/03/15 09:15:13;;;;;;;30.58;8.05;;;0.80;99.90;;;;;;6190660;23;20444;-89
2023/03/15 09:17:40;;;;;;;22.98;7.85;;;0.80;99.90;;;;;;6217606;23;20005;-91
2023/03/15 09:20:13;;;;;;;17.63;7.35;;;0.90;99.90;;;;;;6190489;23;20527;-89
2023/03/15 09:22:40;;;;;;;23.20;8.10;;;0.90;99.90;;;;;;6190396;23;20079;-90
2023/03/15 09:25:07;;;;;;;22.27;8.00;;;0.90;99.90;;;;;;6190411;23;20004;-90
2023/03/15 09:27:33;;;;;;;21.80;7.63;;;1.00;99.90;;;;;;6190087;23;20008;-89
2023/03/15 09:29:59;;;;;;;20.10;8.07;;;1.00;99.90;;;;;;6190837;23;20008;-89
2023/03/15 09:32:25;;;;;;;21.70;8.20;;;1.10;99.90;;;;;;6190167;23;20009;-89
2023/03/15 09:34:50;;;;;;;22.65;8.25;;;1.20;99.90;;;;;;6190312;23;20130;-89
2023/03/15 09:37:17;;;;;;;26.73;9.07;;;1.20;99.90;;;;;;6216717;23;20012;-89
2023/03/15 09:39:43;;;;;;;21.63;8.52;;;1.30;99.90;;;;;;6189935;23;20066;-89
2023/03/15 09:42:38;;;;;;;24.38;9.20;;;1.30;99.90;;;;;;6190300;23;20004;-89
2023/03/15 09:45:18;;;;;;;26.30;8.27;;;1.40;99.90;;;;;;6095802;23;20010;-90
2023/03/15 09:48:04;;;;;;;26.33;9.52;;;1.50;99.90;;;;;;6096210;23;20034;-89
2023/03/15 09:50:50;;;;;;;28.33;11.38;;;1.50;99.90;;;;;;6098458;23;20030;-89
2023/03/15 09:53:31;;;;;;;25.67;10.25;;;1.60;99.90;;;;;;6106040;23;20011;-90
2023/03/15 09:55:57;;;;;;;23.42;9.15;;;1.70;99.90;;;;;;6087599;23;20030;-89
2023/03/15 09:58:34;;;;;;;27.10;9.90;;;1.70;99.90;;;;;;6082228;23;20050;-90
2023/03/15 10:01:06;;;;;;;30.13;9.75;;;1.80;99.90;;;;;;6090175;23;20431;-90
2023/03/15 10:03:43;;;;;;;24.52;9.13;;;1.90;99.90;;;;;;6121167;23;19995;-89
2023/03/15 10:06:25;;;;;;;23.55;8.95;;;1.90;99.90;;;;;;6096864;23;20014;-89
2023/03/15 10:08:58;;;;;;;26.80;9.70;;;2.00;99.90;;;;;;6105459;23;20014;-90
2023/03/15 10:11:45;;;;;;;24.40;9.05;;;2.10;99.90;;;;;;6073884;23;20355;-90
2023/03/15 10:14:38;;;;;;;20.13;8.52;;;2.20;99.90;;;;;;6097396;23;20018;-89
2023/03/15 10:17:11;;;;;;;21.10;8.02;;;2.30;99.90;;;;;;6096772;23;20002;-89
2023/03/15 10:19:57;;;;;;;20.50;7.80;;;2.40;99.90;;;;;;6097020;23;20109;-89
2023/03/15 10:22:30;;;;;;;19.35;7.70;;;2.50;99.90;;;;;;6182830;23;20005;-89
2023/03/15 10:25:00;;;;;;;20.75;8.05;;;2.60;99.90;;;;;;6192479;23;20008;-90
2023/03/15 10:27:38;;;;;;;20.60;8.10;;;2.60;99.90;;;;;;6192960;23;20029;-89
2023/03/15 10:30:16;;;;;;;17.05;8.35;;;2.70;99.90;;;;;;6193241;23;20012;-90
2023/03/15 10:32:46;;;;;;;16.35;6.78;;;2.90;99.90;;;;;;6219697;23;20039;-89
2023/03/15 10:35:17;;;;;;;18.50;7.65;;;3.00;99.90;;;;;;6192474;23;20008;-90
2023/03/15 10:37:44;;;;;;;21.20;9.02;;;3.10;99.90;;;;;;6191794;23;20078;-90
2023/03/15 10:40:17;;;;;;;21.52;8.82;;;3.20;99.90;;;;;;6191892;23;20011;-90
2023/03/15 10:42:46;;;;;;;21.65;7.78;;;3.30;99.90;;;;;;6191972;23;20009;-91
2023/03/15 10:45:24;;;;;;;16.65;6.75;;;3.40;99.90;;;;;;6192139;23;20005;-91
2023/03/15 10:47:51;;;;;;;12.55;5.95;;;3.60;99.90;;;;;;6192484;23;20001;-90
2023/03/15 10:50:24;;;;;;;13.00;5.80;;;3.70;99.90;;;;;;6218634;23;20001;-90
2023/03/15 10:52:55;;;;;;;13.73;6.57;;;3.80;99.90;;;;;;6218710;23;20107;-89
2023/03/15 10:55:36;;;;;;;14.85;5.95;;;4.00;99.90;;;;;;6191720;23;20433;-89
2023/03/15 10:58:38;;;;;;;15.57;5.57;;;4.10;99.90;;;;;;6191691;23;20004;-90
2023/03/15 11:01:06;;;;;;;17.42;5.00;;;4.20;99.90;;;;;;6176115;23;20005;-90
2023/03/15 11:03:33;;;;;;;11.75;4.38;;;4.30;99.90;;;;;;6218521;23;20008;-90
2023/03/15 11:06:00;;;;;;;11.63;4.78;;;4.40;99.90;;;;;;6218447;23;20011;-90
2023/03/15 11:08:37;;;;;;;12.27;5.55;;;4.50;99.90;;;;;;6219081;23;19997;-90
2023/03/15 11:11:03;;;;;;;12.65;4.97;;;4.50;99.90;;;;;;6192954;23;20015;-91
2023/03/15 11:13:34;;;;;;;13.65;5.15;;;4.50;99.90;;;;;;6220028;23;20454;-90
2023/03/15 11:16:19;;;;;;;15.60;5.18;;;4.60;99.90;;;;;;6192576;23;20012;-89
2023/03/15 11:18:52;;;;;;;10.85;4.75;;;4.70;99.90;;;;;;6192422;23;20009;-90
2023/03/15 11:21:19;;;;;;;9.07;4.30;;;4.80;99.90;;;;;;6218297;23;20035;-89
2023/03/15 11:23:49;;;;;;;7.53;3.55;;;4.90;99.90;;;;;;6218091;23;20297;-91
2023/03/15 11:26:21;;;;;;;6.60;2.40;;;4.90;99.90;;;;;;6195957;23;20005;-89
2023/03/15 11:29:19;;;;;;;5.25;3.35;;;4.90;99.90;;;;;;6194644;23;20432;-90
2023/03/15 11:31:45;;;;;;;7.68;3.17;;;4.90;99.90;;;;;;6217595;23;20087;-89
2023/03/15 11:34:48;;;;;;;10.43;3.72;;;4.90;99.90;;;;;;6191793;23;20001;-90
2023/03/15 11:37:26;;;;;;;7.68;3.10;;;4.90;99.90;;;;;;6192603;23;20436;-91
2023/03/15 11:40:03;;;;;;;8.95;3.42;;;5.00;99.90;;;;;;6218802;23;20013;-91
2023/03/15 11:42:36;;;;;;;8.70;3.28;;;5.10;99.90;;;;;;6192468;23;20079;-91
2023/03/15 11:45:11;;;;;;;9.98;3.10;;;5.00;99.90;;;;;;6218720;23;20324;-90
2023/03/15 11:47:50;;;;;;;14.13;3.75;;;5.10;99.90;;;;;;6218286;23;20008;-90
2023/03/15 11:50:16;;;;;;;7.15;3.25;;;5.10;99.90;;;;;;6192486;23;20023;-89
2023/03/15 11:52:46;;;;;;;7.13;3.33;;;5.20;99.90;;;;;;6218644;23;20001;-90
2023/03/15 11:55:32;;;;;;;8.35;3.33;;;5.20;99.90;;;;;;6219076;23;20072;-91
2023/03/15 11:58:28;;;;;;;8.40;2.85;;;5.30;99.90;;;;;;6191912;23;20004;-89
2023/03/15 12:00:59;;;;;;;8.60;2.75;;;5.30;99.90;;;;;;6191721;23;20004;-92
2023/03/15 12:03:41;;;;;;;9.68;3.10;;;5.40;99.90;;;;;;6219078;23;20001;-90
2023/03/15 12:06:36;;;;;;;5.20;2.20;;;5.40;99.90;;;;;;6218347;23;20090;-90
2023/03/15 12:09:22;;;;;;;6.55;2.05;;;5.40;99.90;;;;;;6204482;23;20011;-89
2023/03/15 12:11:49;;;;;;;5.90;1.35;;;5.40;99.90;;;;;;6191972;23;20391;-93
2023/03/15 12:14:32;;;;;;;7.00;2.20;;;5.40;99.90;;;;;;6191200;23;20039;-93
2023/03/15 12:17:25;;;;;;;5.60;2.17;;;5.30;99.90;;;;;;6192574;23;20009;-92
2023/03/15 12:20:21;;;;;;;8.82;2.47;;;5.30;99.90;;;;;;6191978;23;20027;-92
2023/03/15 12:22:53;;;;;;;6.18;1.77;;;5.30;99.90;;;;;;6192060;23;20011;-93
2023/03/15 12:25:28;;;;;;;5.60;1.80;;;5.20;99.90;;;;;;6192245;23;19996;-92
2023/03/15 12:27:55;;;;;;;4.63;1.55;;;5.30;99.90;;;;;;6167547;23;20095;-93
2023/03/15 12:30:32;;;;;;;6.50;2.55;;;5.20;99.90;;;;;;6191536;23;20016;-93
2023/03/15 12:33:01;;;;;;;11.98;2.65;;;5.10;99.90;;;;;;6212729;23;20058;-93
2023/03/15 12:35:39;;;;;;;6.22;2.40;;;5.10;99.90;;;;;;6193667;23;20001;-92
2023/03/15 12:38:16;;;;;;;7.72;3.08;;;5.10;99.90;;;;;;6195748;23;20478;-91
2023/03/15 12:40:52;;;;;;;8.90;2.60;;;5.10;99.90;;;;;;6202717;23;20015;-91
2023/03/15 12:43:44;;;;;;;9.75;2.53;;;5.20;99.90;;;;;;6210264;23;20013;-96
2023/03/15 12:46:37;;;;;;;9.27;3.15;;;5.30;99.90;;;;;;6200639;23;20012;-95
2023/03/15 12:49:13;;;;;;;3.75;2.13;;;5.30;99.90;;;;;;6202822;23;20004;-94
2023/03/15 12:51:53;;;;;;;5.35;2.47;;;5.30;99.90;;;;;;6207343;23;20008;-94
2023/03/15 12:54:24;;;;;;;8.52;3.20;;;5.30;99.90;;;;;;6237497;23;20004;-93
2023/03/15 12:57:02;;;;;;;7.68;2.80;;;5.40;99.90;;;;;;6213406;23;20076;-94